Time,TemperatureF,DewpointF,PressureIn,WindDirection,WindDirectionDegrees,WindSpeedMPH,WindSpeedGustMPH,Humidity,HourlyPrecipIn,Conditions,Clouds,dailyrainin,SoftwareType,DateUTC
2013-10-03 00:12:00,49.1,20.0,30.28,South,189,2.0,4.0,32,0.00,,,0.00,weatherlink.com 1.10,2013-10-03 06:12:00,
2013-10-03 00:27:00,49.4,20.0,30.28,South,189,0.0,4.0,32,0.00,,,0.00,weatherlink.com 1.10,2013-10-03 06:27:00,
2013-10-03 00:42:00,49.2,20.0,30.28,South,189,1.0,4.0,32,0.00,,,0.00,weatherlink.com 1.10,2013-10-03 06:42:00,
2013-10-03 00:57:00,49.0,20.0,30.28,South,188,0.0,3.0,32,0.00,,,0.00,weatherlink.com 1.10,2013-10-03 06:57:00,
2013-10-03 01:12:00,47.6,20.0,30.28,South,188,0.0,1.0,33,0.00,,,0.00,weatherlink.com 1.10,2013-10-03 07:12:00,
2013-10-03 01:27:00,47.9,21.0,30.28,South,188,2.0,4.0,34,0.00,,,0.00,weatherlink.com 1.10,2013-10-03 07:27:00,
2013-10-03 01:42:00,48.3,21.0,30.27,South,187,1.0,5.0,34,0.00,,,0.00,weatherlink.com 1.10,2013-10-03 07:42:00,
2013-10-03 01:57:00,48.3,21.0,30.27,South,186,0.0,5.0,34,0.00,,,0.00,weatherlink.com 1.10,2013-10-03 07:57:00,
2013-10-03 02:12:00,48.0,21.0,30.27,South,185,0.0,5.0,35,0.00,,,0.00,weatherlink.com 1.10,2013-10-03 08:12:00,
2013-10-03 02:27:00,47.1,22.0,30.26,South,184,2.0,3.0,37,0.00,,,0.00,weatherlink.com 1.10,2013-10-03 08:27:00,
2013-10-03 02:42:00,46.8,21.0,30.27,South,185,0.0,1.0,36,0.00,,,0.00,weatherlink.com 1.10,2013-10-03 08:42:00,
2013-10-03 02:57:00,47.0,22.0,30.27,South,185,0.0,3.0,37,0.00,,,0.00,weatherlink.com 1.10,2013-10-03 08:57:00,
2013-10-03 03:12:00,45.7,21.0,30.27,South,185,0.0,1.0,37,0.00,,,0.00,weatherlink.com 1.10,2013-10-03 09:12:00,
2013-10-03 03:27:00,45.6,21.0,30.26,South,185,0.0,1.0,37,0.00,,,0.00,weatherlink.com 1.10,2013-10-03 09:27:00,
2013-10-03 03:42:00,45.2,21.0,30.26,South,185,0.0,1.0,38,0.00,,,0.00,weatherlink.com 1.10,2013-10-03 09:42:00,
2013-10-03 03:57:00,44.3,21.0,30.26,South,185,0.0,0.0,39,0.00,,,0.00,weatherlink.com 1.10,2013-10-03 09:57:00,
2013-10-03 04:12:00,42.4,21.0,30.26,South,184,0.0,1.0,42,0.00,,,0.00,weatherlink.com 1.10,2013-10-03 10:12:00,
2013-10-03 04:27:00,40.9,21.0,30.26,South,184,0.0,0.0,45,0.00,,,0.00,weatherlink.com 1.10,2013-10-03 10:27:00,
2013-10-03 04:42:00,40.9,21.0,30.26,South,184,0.0,1.0,45,0.00,,,0.00,weatherlink.com 1.10,2013-10-03 10:42:00,
2013-10-03 04:57:00,39.7,21.0,30.27,South,185,0.0,1.0,47,0.00,,,0.00,weatherlink.com 1.10,2013-10-03 10:57:00,
2013-10-03 05:12:00,39.9,21.0,30.27,South,185,1.0,3.0,48,0.00,,,0.00,weatherlink.com 1.10,2013-10-03 11:12:00,
2013-10-03 05:27:00,42.6,21.0,30.27,South,185,0.0,4.0,43,0.00,,,0.00,weatherlink.com 1.10,2013-10-03 11:27:00,
2013-10-03 05:42:00,43.5,22.0,30.28,South,184,0.0,2.0,43,0.00,,,0.00,weatherlink.com 1.10,2013-10-03 11:42:00,
2013-10-03 05:57:00,43.8,23.0,30.27,South,184,0.0,2.0,44,0.00,,,0.00,weatherlink.com 1.10,2013-10-03 11:57:00,
2013-10-03 06:12:00,43.6,23.0,30.27,South,184,0.0,1.0,45,0.00,,,0.00,weatherlink.com 1.10,2013-10-03 12:12:00,
2013-10-03 06:27:00,43.3,24.0,30.28,South,185,0.0,1.0,46,0.00,,,0.00,weatherlink.com 1.10,2013-10-03 12:27:00,
2013-10-03 06:42:00,43.3,24.0,30.27,South,185,0.0,1.0,46,0.00,,,0.00,weatherlink.com 1.10,2013-10-03 12:42:00,
2013-10-03 06:57:00,45.7,26.0,30.27,South,185,2.0,3.0,46,0.00,,,0.00,weatherlink.com 1.10,2013-10-03 12:57:00,
2013-10-03 07:12:00,47.8,27.0,30.27,South,185,1.0,4.0,45,0.00,,,0.00,weatherlink.com 1.10,2013-10-03 13:12:00,
2013-10-03 07:27:00,48.7,28.0,30.27,South,185,3.0,5.0,45,0.00,,,0.00,weatherlink.com 1.10,2013-10-03 13:27:00,
2013-10-03 07:43:00,49.2,29.0,30.27,South,185,0.0,5.0,46,0.00,,,0.00,weatherlink.com 1.10,2013-10-03 13:43:00,
2013-10-03 07:58:00,48.9,29.0,30.27,South,185,0.0,3.0,47,0.00,,,0.00,weatherlink.com 1.10,2013-10-03 13:58:00,
2013-10-03 08:13:00,51.3,31.0,30.27,South,185,1.0,4.0,47,0.00,,,0.00,weatherlink.com 1.10,2013-10-03 14:13:00,
2013-10-03 08:28:00,54.5,33.0,30.27,South,185,3.0,5.0,44,0.00,,,0.00,weatherlink.com 1.10,2013-10-03 14:28:00,
2013-10-03 08:43:00,55.9,33.0,30.27,South,186,5.0,6.0,43,0.00,,,0.00,weatherlink.com 1.10,2013-10-03 14:43:00,
2013-10-03 08:58:00,56.5,34.0,30.26,South,190,6.0,7.0,43,0.00,,,0.00,weatherlink.com 1.10,2013-10-03 14:58:00,
2013-10-03 09:13:00,57.0,34.0,30.26,SSW,197,4.0,6.0,43,0.00,,,0.00,weatherlink.com 1.10,2013-10-03 15:13:00,
2013-10-03 09:28:00,57.4,34.0,30.26,SSW,203,4.0,8.0,41,0.00,,,0.00,weatherlink.com 1.10,2013-10-03 15:28:00,
2013-10-03 09:43:00,57.6,34.0,30.26,NW,311,0.0,9.0,41,0.00,,,0.00,weatherlink.com 1.10,2013-10-03 15:43:00,
2013-10-03 09:58:00,58.0,34.0,30.25,WNW,298,8.0,9.0,40,0.00,,,0.00,weatherlink.com 1.10,2013-10-03 15:58:00,
2013-10-03 10:13:00,58.5,35.0,30.25,WNW,302,2.0,8.0,41,0.00,,,0.00,weatherlink.com 1.10,2013-10-03 16:13:00,
2013-10-03 10:28:00,59.3,35.0,30.25,NW,318,4.0,8.0,40,0.00,,,0.00,weatherlink.com 1.10,2013-10-03 16:28:00,
2013-10-03 10:43:00,60.0,34.0,30.25,North,5,0.0,10.0,38,0.00,,,0.00,weatherlink.com 1.10,2013-10-03 16:43:00,
2013-10-03 10:58:00,61.0,34.0,30.24,NW,306,1.0,10.0,37,0.00,,,0.00,weatherlink.com 1.10,2013-10-03 16:58:00,
2013-10-03 11:13:00,62.1,30.0,30.23,WSW,255,7.0,10.0,30,0.00,,,0.00,weatherlink.com 1.10,2013-10-03 17:13:00,
2013-10-03 11:28:00,62.6,28.0,30.22,West,280,2.0,15.0,27,0.00,,,0.00,weatherlink.com 1.10,2013-10-03 17:28:00,
2013-10-03 11:43:00,63.6,26.0,30.22,NW,304,0.0,11.0,24,0.00,,,0.00,weatherlink.com 1.10,2013-10-03 17:43:00,
2013-10-03 11:58:00,63.9,27.0,30.22,WNW,284,3.0,10.0,25,0.00,,,0.00,weatherlink.com 1.10,2013-10-03 17:58:00,
2013-10-03 12:13:00,64.3,22.0,30.21,West,271,7.0,15.0,20,0.00,,,0.00,weatherlink.com 1.10,2013-10-03 18:13:00,
2013-10-03 12:28:00,64.9,23.0,30.20,NNW,338,8.0,10.0,20,0.00,,,0.00,weatherlink.com 1.10,2013-10-03 18:28:00,
2013-10-03 12:43:00,65.2,25.0,30.20,West,273,9.0,11.0,22,0.00,,,0.00,weatherlink.com 1.10,2013-10-03 18:43:00,
2013-10-03 12:58:00,66.2,27.0,30.20,WNW,295,3.0,14.0,23,0.00,,,0.00,weatherlink.com 1.10,2013-10-03 18:58:00,
2013-10-03 13:13:00,67.0,26.0,30.19,West,271,11.0,16.0,21,0.00,,,0.00,weatherlink.com 1.10,2013-10-03 19:13:00,
2013-10-03 13:28:00,67.3,26.0,30.17,WNW,284,4.0,12.0,21,0.00,,,0.00,weatherlink.com 1.10,2013-10-03 19:28:00,
2013-10-03 13:43:00,67.8,27.0,30.16,West,273,6.0,14.0,22,0.00,,,0.00,weatherlink.com 1.10,2013-10-03 19:43:00,
2013-10-03 13:58:00,68.3,27.0,30.16,WNW,300,7.0,13.0,21,0.00,,,0.00,weatherlink.com 1.10,2013-10-03 19:58:00,
2013-10-03 14:13:00,68.6,27.0,30.15,West,276,8.0,13.0,21,0.00,,,0.00,weatherlink.com 1.10,2013-10-03 20:13:00,
2013-10-03 14:28:00,68.8,28.0,30.14,WNW,290,5.0,15.0,22,0.00,,,0.00,weatherlink.com 1.10,2013-10-03 20:28:00,
2013-10-03 14:44:00,69.0,26.0,30.14,West,264,13.0,16.0,20,0.00,,,0.00,weatherlink.com 1.10,2013-10-03 20:44:00,
2013-10-03 14:59:00,68.8,27.0,30.13,West,281,3.0,16.0,21,0.00,,,0.00,weatherlink.com 1.10,2013-10-03 20:59:00,
2013-10-03 15:14:00,69.3,29.0,30.12,West,279,8.0,10.0,22,0.00,,,0.00,weatherlink.com 1.10,2013-10-03 21:14:00,
2013-10-03 15:29:00,69.9,27.0,30.11,West,265,7.0,14.0,20,0.00,,,0.00,weatherlink.com 1.10,2013-10-03 21:29:00,
2013-10-03 15:44:00,69.6,27.0,30.11,WNW,296,3.0,14.0,20,0.00,,,0.00,weatherlink.com 1.10,2013-10-03 21:44:00,
2013-10-03 15:59:00,70.0,27.0,30.10,West,274,8.0,14.0,20,0.00,,,0.00,weatherlink.com 1.10,2013-10-03 21:59:00,
2013-10-03 16:14:00,69.9,27.0,30.10,WSW,245,8.0,18.0,20,0.00,,,0.00,weatherlink.com 1.10,2013-10-03 22:14:00,
2013-10-03 16:29:00,69.9,27.0,30.09,WSW,237,7.0,16.0,20,0.00,,,0.00,weatherlink.com 1.10,2013-10-03 22:29:00,
2013-10-03 16:44:00,69.7,27.0,30.09,West,265,10.0,16.0,20,0.00,,,0.00,weatherlink.com 1.10,2013-10-03 22:44:00,
2013-10-03 16:59:00,69.4,25.0,30.08,SW,233,4.0,16.0,19,0.00,,,0.00,weatherlink.com 1.10,2013-10-03 22:59:00,
2013-10-03 17:14:00,69.5,28.0,30.08,SW,236,11.0,14.0,21,0.00,,,0.00,weatherlink.com 1.10,2013-10-03 23:14:00,
2013-10-03 17:29:00,69.0,28.0,30.07,WSW,245,9.0,14.0,22,0.00,,,0.00,weatherlink.com 1.10,2013-10-03 23:29:00,
2013-10-03 17:44:00,67.7,28.0,30.07,SW,223,7.0,18.0,23,0.00,,,0.00,weatherlink.com 1.10,2013-10-03 23:44:00,
2013-10-03 17:59:00,66.5,28.0,30.08,SW,219,9.0,17.0,24,0.00,,,0.00,weatherlink.com 1.10,2013-10-03 23:59:00,
2013-10-03 18:14:00,65.5,30.0,30.09,SW,219,7.0,18.0,26,0.00,,,0.00,weatherlink.com 1.10,2013-10-04 00:14:00,
2013-10-03 18:29:00,64.2,29.0,30.09,SW,229,1.0,11.0,27,0.00,,,0.00,weatherlink.com 1.10,2013-10-04 00:29:00,
2013-10-03 18:44:00,62.2,29.0,30.09,SSW,213,3.0,7.0,28,0.00,,,0.00,weatherlink.com 1.10,2013-10-04 00:44:00,
2013-10-03 18:59:00,61.4,28.0,30.10,SSW,202,3.0,9.0,28,0.00,,,0.00,weatherlink.com 1.10,2013-10-04 00:59:00,
2013-10-03 19:14:00,60.6,27.0,30.10,SSW,203,1.0,9.0,28,0.00,,,0.00,weatherlink.com 1.10,2013-10-04 01:14:00,
2013-10-03 19:29:00,60.3,27.0,30.10,South,186,2.0,9.0,28,0.00,,,0.00,weatherlink.com 1.10,2013-10-04 01:29:00,
2013-10-03 19:44:00,60.1,27.0,30.11,SSW,193,1.0,9.0,28,0.00,,,0.00,weatherlink.com 1.10,2013-10-04 01:44:00,
2013-10-03 19:59:00,59.6,26.0,30.11,South,184,5.0,8.0,28,0.00,,,0.00,weatherlink.com 1.10,2013-10-04 01:59:00,
2013-10-03 20:14:00,59.4,26.0,30.11,SSE,162,8.0,12.0,28,0.00,,,0.00,weatherlink.com 1.10,2013-10-04 02:14:00,
2013-10-03 20:29:00,59.0,27.0,30.11,South,171,6.0,12.0,29,0.00,,,0.00,weatherlink.com 1.10,2013-10-04 02:29:00,
2013-10-03 20:44:00,59.1,26.0,30.12,SSE,167,0.0,15.0,28,0.00,,,0.00,weatherlink.com 1.10,2013-10-04 02:44:00,
2013-10-03 20:59:00,58.4,26.0,30.12,South,169,4.0,9.0,29,0.00,,,0.00,weatherlink.com 1.10,2013-10-04 02:59:00,
2013-10-03 21:14:00,57.8,26.0,30.12,South,176,0.0,7.0,29,0.00,,,0.00,weatherlink.com 1.10,2013-10-04 03:14:00,
2013-10-03 21:29:00,58.4,25.0,30.12,SSW,199,4.0,11.0,28,0.00,,,0.00,weatherlink.com 1.10,2013-10-04 03:29:00,
2013-10-03 21:44:00,59.4,25.0,30.12,SSW,211,0.0,9.0,27,0.00,,,0.00,weatherlink.com 1.10,2013-10-04 03:44:00,
2013-10-03 21:59:00,57.8,25.0,30.13,SSW,211,0.0,0.0,28,0.00,,,0.00,weatherlink.com 1.10,2013-10-04 03:59:00,
2013-10-03 22:45:00,51.7,26.0,30.13,SSW,211,0.0,1.0,37,0.00,,,0.00,weatherlink.com 1.10,2013-10-04 04:45:00,
2013-10-03 23:00:00,50.7,26.0,30.13,SSW,211,0.0,1.0,38,0.00,,,0.00,weatherlink.com 1.10,2013-10-04 05:00:00,
2013-10-03 23:15:00,50.7,26.0,30.13,SSW,211,0.0,1.0,39,0.00,,,0.00,weatherlink.com 1.10,2013-10-04 05:15:00,
2013-10-03 23:30:00,49.1,26.0,30.14,SSW,211,0.0,3.0,41,0.00,,,0.00,weatherlink.com 1.10,2013-10-04 05:30:00,
2013-10-03 23:45:00,47.7,26.0,30.14,SSW,211,0.0,2.0,43,0.00,,,0.00,weatherlink.com 1.10,2013-10-04 05:45:00,